sensor_id;sensor_type;location;lat;lon;timestamp;temperature;humidity
74224;SHT31;62585;49.706;18.216;2023-07-20T04:15:05;17.34;77.41
74224;SHT31;62585;49.706;18.216;2023-07-20T04:17:32;17.34;77.42
74224;SHT31;62585;49.706;18.216;2023-07-20T04:19:57;17.38;77.51
74224;SHT31;62585;49.706;18.216;2023-07-20T04:22:23;17.40;76.94
74224;SHT31;62585;49.706;18.216;2023-07-20T04:24:49;17.46;75.99
74224;SHT31;62585;49.706;18.216;2023-07-20T04:27:15;17.43;76.29
74224;SHT31;62585;49.706;18.216;2023-07-20T04:29:40;17.49;76.65
74224;SHT31;62585;49.706;18.216;2023-07-20T04:32:07;17.52;76.46
74224;SHT31;62585;49.706;18.216;2023-07-20T04:34:32;17.63;75.80
74224;SHT31;62585;49.706;18.216;2023-07-20T04:37:04;17.57;76.07
74224;SHT31;62585;49.706;18.216;2023-07-20T04:39:29;17.67;75.07
74224;SHT31;62585;49.706;18.216;2023-07-20T04:41:56;17.69;75.47
74224;SHT31;62585;49.706;18.216;2023-07-20T04:44:22;17.80;75.51
74224;SHT31;62585;49.706;18.216;2023-07-20T04:46:48;17.97;75.29
74224;SHT31;62585;49.706;18.216;2023-07-20T04:49:14;17.83;74.65
74224;SHT31;62585;49.706;18.216;2023-07-20T04:51:40;17.86;74.04
74224;SHT31;62585;49.706;18.216;2023-07-20T04:54:06;17.94;73.95
74224;SHT31;62585;49.706;18.216;2023-07-20T04:56:32;17.97;75.37
74224;SHT31;62585;49.706;18.216;2023-07-20T04:58:58;17.98;74.51
74224;SHT31;62585;49.706;18.216;2023-07-20T05:01:25;18.04;74.04
74224;SHT31;62585;49.706;18.216;2023-07-20T05:03:52;18.13;73.07
74224;SHT31;62585;49.706;18.216;2023-07-20T05:06:18;18.00;73.75
74224;SHT31;62585;49.706;18.216;2023-07-20T05:08:44;18.18;74.25
74224;SHT31;62585;49.706;18.216;2023-07-20T05:11:11;18.34;74.02
74224;SHT31;62585;49.706;18.216;2023-07-20T05:13:37;18.49;71.86
74224;SHT31;62585;49.706;18.216;2023-07-20T05:16:04;18.55;73.31
74224;SHT31;62585;49.706;18.216;2023-07-20T05:18:29;18.56;71.71
74224;SHT31;62585;49.706;18.216;2023-07-20T05:20:55;18.53;71.74
74224;SHT31;62585;49.706;18.216;2023-07-20T05:23:21;18.63;71.00
74224;SHT31;62585;49.706;18.216;2023-07-20T05:25:57;18.63;71.02
74224;SHT31;62585;49.706;18.216;2023-07-20T05:28:23;18.41;71.71
74224;SHT31;62585;49.706;18.216;2023-07-20T05:30:50;18.88;72.96
74224;SHT31;62585;49.706;18.216;2023-07-20T05:33:18;18.85;72.62
74224;SHT31;62585;49.706;18.216;2023-07-20T05:35:44;19.00;71.43
74224;SHT31;62585;49.706;18.216;2023-07-20T05:38:09;19.02;70.81
74224;SHT31;62585;49.706;18.216;2023-07-20T05:40:38;19.09;70.49
74224;SHT31;62585;49.706;18.216;2023-07-20T05:43:03;19.10;70.87
74224;SHT31;62585;49.706;18.216;2023-07-20T05:45:29;19.16;69.80
74224;SHT31;62585;49.706;18.216;2023-07-20T05:47:55;18.90;68.06
74224;SHT31;62585;49.706;18.216;2023-07-20T05:50:21;19.03;69.02
74224;SHT31;62585;49.706;18.216;2023-07-20T05:52:46;19.09;68.43
74224;SHT31;62585;49.706;18.216;2023-07-20T05:55:13;18.86;68.67
74224;SHT31;62585;49.706;18.216;2023-07-20T05:57:42;18.96;68.81
74224;SHT31;62585;49.706;18.216;2023-07-20T06:00:12;19.07;68.67
74224;SHT31;62585;49.706;18.216;2023-07-20T06:02:41;19.32;67.43
74224;SHT31;62585;49.706;18.216;2023-07-20T06:05:07;19.30;67.71
74224;SHT31;62585;49.706;18.216;2023-07-20T06:07:36;19.44;67.00
74224;SHT31;62585;49.706;18.216;2023-07-20T06:10:03;19.43;67.44
74224;SHT31;62585;49.706;18.216;2023-07-20T06:12:28;19.64;66.94
74224;SHT31;62585;49.706;18.216;2023-07-20T06:14:55;19.71;66.87
74224;SHT31;62585;49.706;18.216;2023-07-20T06:17:21;19.93;67.13
74224;SHT31;62585;49.706;18.216;2023-07-20T06:19:47;20.22;67.76
74224;SHT31;62585;49.706;18.216;2023-07-20T06:22:12;20.29;65.83
74224;SHT31;62585;49.706;18.216;2023-07-20T06:24:38;20.27;65.05
74224;SHT31;62585;49.706;18.216;2023-07-20T06:27:04;20.47;66.04
74224;SHT31;62585;49.706;18.216;2023-07-20T06:29:31;20.48;65.02
74224;SHT31;62585;49.706;18.216;2023-07-20T06:31:57;20.19;65.33
74224;SHT31;62585;49.706;18.216;2023-07-20T06:34:23;20.26;65.17
74224;SHT31;62585;49.706;18.216;2023-07-20T06:36:49;20.32;64.67
74224;SHT31;62585;49.706;18.216;2023-07-20T06:39:15;20.16;65.87
74224;SHT31;62585;49.706;18.216;2023-07-20T06:41:41;20.27;65.31
74224;SHT31;62585;49.706;18.216;2023-07-20T06:44:07;20.44;64.86
74224;SHT31;62585;49.706;18.216;2023-07-20T06:46:33;20.16;65.35
74224;SHT31;62585;49.706;18.216;2023-07-20T06:49:01;20.03;64.93
74224;SHT31;62585;49.706;18.216;2023-07-20T06:51:26;19.97;65.17
74224;SHT31;62585;49.706;18.216;2023-07-20T06:53:52;20.23;64.66
74224;SHT31;62585;49.706;18.216;2023-07-20T06:56:18;20.32;64.50
74224;SHT31;62585;49.706;18.216;2023-07-20T06:58:44;20.74;64.66
74224;SHT31;62585;49.706;18.216;2023-07-20T07:01:10;20.82;62.81
74224;SHT31;62585;49.706;18.216;2023-07-20T07:03:36;20.75;61.90
74224;SHT31;62585;49.706;18.216;2023-07-20T07:06:02;20.74;62.78
74224;SHT31;62585;49.706;18.216;2023-07-20T07:08:29;20.87;62.39
74224;SHT31;62585;49.706;18.216;2023-07-20T07:10:54;21.05;62.93
74224;SHT31;62585;49.706;18.216;2023-07-20T07:13:20;21.02;63.64
74224;SHT31;62585;49.706;18.216;2023-07-20T07:15:46;21.27;63.59
74224;SHT31;62585;49.706;18.216;2023-07-20T07:18:12;21.36;62.10
74224;SHT31;62585;49.706;18.216;2023-07-20T07:20:38;21.40;63.26
74224;SHT31;62585;49.706;18.216;2023-07-20T07:23:06;21.26;62.88
74224;SHT31;62585;49.706;18.216;2023-07-20T07:25:32;21.56;61.13
74224;SHT31;62585;49.706;18.216;2023-07-20T07:27:57;21.46;61.28
74224;SHT31;62585;49.706;18.216;2023-07-20T07:30:23;21.54;62.44
74224;SHT31;62585;49.706;18.216;2023-07-20T07:32:49;21.29;60.99
74224;SHT31;62585;49.706;18.216;2023-07-20T07:35:15;21.15;61.37
74224;SHT31;62585;49.706;18.216;2023-07-20T07:37:41;21.57;61.22
74224;SHT31;62585;49.706;18.216;2023-07-20T07:40:07;21.75;60.27
74224;SHT31;62585;49.706;18.216;2023-07-20T07:42:33;21.93;60.59
74224;SHT31;62585;49.706;18.216;2023-07-20T07:44:59;21.87;61.56
74224;SHT31;62585;49.706;18.216;2023-07-20T07:47:25;22.08;60.55
74224;SHT31;62585;49.706;18.216;2023-07-20T07:49:51;21.94;58.11
74224;SHT31;62585;49.706;18.216;2023-07-20T10:58:07;26.16;54.18
74224;SHT31;62585;49.706;18.216;2023-07-20T11:00:34;26.15;51.55
74224;SHT31;62585;49.706;18.216;2023-07-20T11:03:00;25.75;50.73
74224;SHT31;62585;49.706;18.216;2023-07-20T11:05:34;25.64;53.78
74224;SHT31;62585;49.706;18.216;2023-07-20T11:08:03;25.03;52.99
74224;SHT31;62585;49.706;18.216;2023-07-20T11:10:29;24.86;55.34
74224;SHT31;62585;49.706;18.216;2023-07-20T11:18:25;24.51;55.45
74224;SHT31;62585;49.706;18.216;2023-07-20T11:20:52;25.28;53.08
74224;SHT31;62585;49.706;18.216;2023-07-20T11:23:20;25.92;51.52
74224;SHT31;62585;49.706;18.216;2023-07-20T11:25:46;25.71;49.90
74224;SHT31;62585;49.706;18.216;2023-07-20T11:28:12;25.47;53.45
74224;SHT31;62585;49.706;18.216;2023-07-20T11:30:38;25.88;52.33
74224;SHT31;62585;49.706;18.216;2023-07-20T11:33:05;26.59;51.96
74224;SHT31;62585;49.706;18.216;2023-07-20T11:35:35;26.73;48.86
74224;SHT31;62585;49.706;18.216;2023-07-20T11:38:02;27.12;52.33
74224;SHT31;62585;49.706;18.216;2023-07-20T11:40:28;27.05;52.52
74224;SHT31;62585;49.706;18.216;2023-07-20T11:42:54;26.74;50.71
74224;SHT31;62585;49.706;18.216;2023-07-20T11:45:20;25.71;52.40
74224;SHT31;62585;49.706;18.216;2023-07-20T11:47:45;25.71;53.81
74224;SHT31;62585;49.706;18.216;2023-07-20T11:50:12;26.26;52.68
74224;SHT31;62585;49.706;18.216;2023-07-20T11:52:40;26.95;50.14
74224;SHT31;62585;49.706;18.216;2023-07-20T11:55:07;26.29;51.36
74224;SHT31;62585;49.706;18.216;2023-07-20T11:57:33;26.68;51.29
74224;SHT31;62585;49.706;18.216;2023-07-20T12:00:03;26.54;51.08
74224;SHT31;62585;49.706;18.216;2023-07-20T12:02:34;27.14;49.66
74224;SHT31;62585;49.706;18.216;2023-07-20T12:05:02;26.80;48.87
74224;SHT31;62585;49.706;18.216;2023-07-20T12:07:29;27.06;47.40
74224;SHT31;62585;49.706;18.216;2023-07-20T12:10:09;27.15;48.17
74224;SHT31;62585;49.706;18.216;2023-07-20T12:12:38;27.49;45.49
74224;SHT31;62585;49.706;18.216;2023-07-20T12:15:16;26.99;48.80
74224;SHT31;62585;49.706;18.216;2023-07-20T12:17:46;26.33;48.55
74224;SHT31;62585;49.706;18.216;2023-07-20T12:20:12;25.53;50.00
74224;SHT31;62585;49.706;18.216;2023-07-20T12:22:43;25.60;48.94
74224;SHT31;62585;49.706;18.216;2023-07-20T12:25:09;26.60;51.89
74224;SHT31;62585;49.706;18.216;2023-07-20T12:27:36;26.43;50.70
74224;SHT31;62585;49.706;18.216;2023-07-20T12:30:05;26.09;51.00
74224;SHT31;62585;49.706;18.216;2023-07-20T12:32:31;25.72;51.08
74224;SHT31;62585;49.706;18.216;2023-07-20T12:34:57;25.10;53.23
74224;SHT31;62585;49.706;18.216;2023-07-20T12:37:26;24.90;53.93
74224;SHT31;62585;49.706;18.216;2023-07-20T12:39:53;24.68;53.06
74224;SHT31;62585;49.706;18.216;2023-07-20T12:42:18;24.48;54.03
74224;SHT31;62585;49.706;18.216;2023-07-20T12:44:44;24.14;54.82
74224;SHT31;62585;49.706;18.216;2023-07-20T12:47:10;23.89;55.90
74224;SHT31;62585;49.706;18.216;2023-07-20T12:49:36;23.77;52.34
74224;SHT31;62585;49.706;18.216;2023-07-20T12:52:02;23.76;55.31
74224;SHT31;62585;49.706;18.216;2023-07-20T12:54:28;23.55;56.57
74224;SHT31;62585;49.706;18.216;2023-07-20T12:56:54;23.39;57.18
74224;SHT31;62585;49.706;18.216;2023-07-20T12:59:20;23.38;59.97
74224;SHT31;62585;49.706;18.216;2023-07-20T13:01:45;23.15;61.03
74224;SHT31;62585;49.706;18.216;2023-07-20T13:04:11;23.24;61.69
74224;SHT31;62585;49.706;18.216;2023-07-20T13:06:37;23.38;58.76
74224;SHT31;62585;49.706;18.216;2023-07-20T13:09:03;23.32;60.19
74224;SHT31;62585;49.706;18.216;2023-07-20T13:11:30;23.25;60.97
74224;SHT31;62585;49.706;18.216;2023-07-20T13:13:56;23.25;59.44
74224;SHT31;62585;49.706;18.216;2023-07-20T13:16:22;23.39;59.38
74224;SHT31;62585;49.706;18.216;2023-07-20T13:18:48;23.31;61.16
74224;SHT31;62585;49.706;18.216;2023-07-20T13:21:14;23.10;60.80
74224;SHT31;62585;49.706;18.216;2023-07-20T13:23:40;23.32;59.78
74224;SHT31;62585;49.706;18.216;2023-07-20T13:26:05;23.46;61.30
74224;SHT31;62585;49.706;18.216;2023-07-20T13:28:31;23.42;64.68
74224;SHT31;62585;49.706;18.216;2023-07-20T13:30:57;23.34;61.65
74224;SHT31;62585;49.706;18.216;2023-07-20T13:33:23;23.35;61.90
74224;SHT31;62585;49.706;18.216;2023-07-20T13:35:49;23.24;55.05
74224;SHT31;62585;49.706;18.216;2023-07-20T13:38:15;23.19;54.82
74224;SHT31;62585;49.706;18.216;2023-07-20T13:40:41;23.38;53.27
74224;SHT31;62585;49.706;18.216;2023-07-20T13:43:08;23.37;51.45
74224;SHT31;62585;49.706;18.216;2023-07-20T13:45:33;23.35;51.52
74224;SHT31;62585;49.706;18.216;2023-07-20T13:47:59;23.63;50.88
74224;SHT31;62585;49.706;18.216;2023-07-20T13:50:25;23.80;49.58
74224;SHT31;62585;49.706;18.216;2023-07-20T13:52:51;23.92;50.08
74224;SHT31;62585;49.706;18.216;2023-07-20T13:55:17;24.23;47.43
74224;SHT31;62585;49.706;18.216;2023-07-20T13:57:43;24.69;48.54
74224;SHT31;62585;49.706;18.216;2023-07-20T14:00:09;24.54;46.42
74224;SHT31;62585;49.706;18.216;2023-07-20T14:02:36;24.34;49.21
74224;SHT31;62585;49.706;18.216;2023-07-20T14:05:02;23.93;48.24
74224;SHT31;62585;49.706;18.216;2023-07-20T14:07:28;23.66;48.57
74224;SHT31;62585;49.706;18.216;2023-07-20T14:09:54;23.67;48.19
74224;SHT31;62585;49.706;18.216;2023-07-20T14:12:20;23.79;48.45
74224;SHT31;62585;49.706;18.216;2023-07-20T14:14:46;23.93;48.82
74224;SHT31;62585;49.706;18.216;2023-07-20T14:17:11;23.87;46.47
74224;SHT31;62585;49.706;18.216;2023-07-20T14:19:38;23.87;46.23
74224;SHT31;62585;49.706;18.216;2023-07-20T14:22:04;23.92;46.40
74224;SHT31;62585;49.706;18.216;2023-07-20T14:24:32;24.04;46.67
74224;SHT31;62585;49.706;18.216;2023-07-20T14:26:58;24.34;47.24
74224;SHT31;62585;49.706;18.216;2023-07-20T14:29:26;24.32;47.12
74224;SHT31;62585;49.706;18.216;2023-07-20T14:31:52;24.92;45.84
74224;SHT31;62585;49.706;18.216;2023-07-20T14:34:19;25.10;48.91
74224;SHT31;62585;49.706;18.216;2023-07-20T14:36:45;24.65;48.88
74224;SHT31;62585;49.706;18.216;2023-07-20T14:39:11;24.21;51.97
74224;SHT31;62585;49.706;18.216;2023-07-20T14:41:37;23.49;53.36
74224;SHT31;62585;49.706;18.216;2023-07-20T14:44:03;23.06;54.26
74224;SHT31;62585;49.706;18.216;2023-07-20T14:46:29;22.79;55.92
74224;SHT31;62585;49.706;18.216;2023-07-20T14:48:54;22.80;56.59
74224;SHT31;62585;49.706;18.216;2023-07-20T14:51:20;22.81;55.69
74224;SHT31;62585;49.706;18.216;2023-07-20T14:53:46;22.77;55.86
74224;SHT31;62585;49.706;18.216;2023-07-20T14:56:12;22.86;55.51
74224;SHT31;62585;49.706;18.216;2023-07-20T14:58:38;23.32;55.78
74224;SHT31;62585;49.706;18.216;2023-07-20T15:01:04;23.70;53.55
74224;SHT31;62585;49.706;18.216;2023-07-20T15:03:29;23.72;53.38
74224;SHT31;62585;49.706;18.216;2023-07-20T15:05:56;23.51;53.85
74224;SHT31;62585;49.706;18.216;2023-07-20T15:08:22;23.37;52.95
74224;SHT31;62585;49.706;18.216;2023-07-20T15:10:48;23.14;54.62
74224;SHT31;62585;49.706;18.216;2023-07-20T15:13:15;22.86;53.90
74224;SHT31;62585;49.706;18.216;2023-07-20T15:15:41;22.60;54.56
74224;SHT31;62585;49.706;18.216;2023-07-20T15:18:08;22.36;56.42
74224;SHT31;62585;49.706;18.216;2023-07-20T15:20:34;22.50;56.14
74224;SHT31;62585;49.706;18.216;2023-07-20T15:23:00;22.52;55.67
74224;SHT31;62585;49.706;18.216;2023-07-20T15:25:26;22.40;55.62
74224;SHT31;62585;49.706;18.216;2023-07-20T15:27:51;22.21;56.35
74224;SHT31;62585;49.706;18.216;2023-07-20T15:30:18;22.16;56.54
74224;SHT31;62585;49.706;18.216;2023-07-20T15:32:44;22.26;55.34
74224;SHT31;62585;49.706;18.216;2023-07-20T15:35:10;22.23;56.66
74224;SHT31;62585;49.706;18.216;2023-07-20T15:37:36;22.05;56.74
74224;SHT31;62585;49.706;18.216;2023-07-20T15:40:03;22.12;57.35
74224;SHT31;62585;49.706;18.216;2023-07-20T15:42:31;22.29;56.40
74224;SHT31;62585;49.706;18.216;2023-07-20T15:44:57;22.29;56.56
74224;SHT31;62585;49.706;18.216;2023-07-20T15:47:23;22.25;57.55
74224;SHT31;62585;49.706;18.216;2023-07-20T15:49:49;22.32;56.08
74224;SHT31;62585;49.706;18.216;2023-07-20T15:52:15;22.35;57.95
74224;SHT31;62585;49.706;18.216;2023-07-20T15:54:41;22.35;56.38
74224;SHT31;62585;49.706;18.216;2023-07-20T15:57:07;22.45;55.75
74224;SHT31;62585;49.706;18.216;2023-07-20T15:59:38;22.28;57.47
74224;SHT31;62585;49.706;18.216;2023-07-20T16:02:03;22.42;58.23
74224;SHT31;62585;49.706;18.216;2023-07-20T16:04:30;22.96;55.21
74224;SHT31;62585;49.706;18.216;2023-07-20T16:06:56;23.18;56.70
74224;SHT31;62585;49.706;18.216;2023-07-20T16:09:22;23.52;55.74
74224;SHT31;62585;49.706;18.216;2023-07-20T16:11:48;23.41;54.20
74224;SHT31;62585;49.706;18.216;2023-07-20T16:14:14;23.25;54.69
74224;SHT31;62585;49.706;18.216;2023-07-20T16:16:40;23.29;54.83
74224;SHT31;62585;49.706;18.216;2023-07-20T16:19:06;23.42;52.73
74224;SHT31;62585;49.706;18.216;2023-07-20T16:21:32;23.03;53.55
74224;SHT31;62585;49.706;18.216;2023-07-20T16:23:58;23.12;54.14
74224;SHT31;62585;49.706;18.216;2023-07-20T16:26:25;22.93;54.79
74224;SHT31;62585;49.706;18.216;2023-07-20T16:28:51;22.66;55.00
74224;SHT31;62585;49.706;18.216;2023-07-20T16:31:17;22.69;54.68
74224;SHT31;62585;49.706;18.216;2023-07-20T16:33:44;22.66;54.65
74224;SHT31;62585;49.706;18.216;2023-07-20T16:36:11;22.57;55.57
74224;SHT31;62585;49.706;18.216;2023-07-20T16:38:38;22.42;56.66
74224;SHT31;62585;49.706;18.216;2023-07-20T16:41:06;22.06;57.87
74224;SHT31;62585;49.706;18.216;2023-07-20T16:43:36;22.05;58.76
74224;SHT31;62585;49.706;18.216;2023-07-20T16:46:03;22.09;59.08
74224;SHT31;62585;49.706;18.216;2023-07-20T16:48:29;21.95;59.05
74224;SHT31;62585;49.706;18.216;2023-07-20T16:50:56;21.98;59.19
74224;SHT31;62585;49.706;18.216;2023-07-20T16:53:23;21.67;59.57
74224;SHT31;62585;49.706;18.216;2023-07-20T16:55:49;21.88;59.01
74224;SHT31;62585;49.706;18.216;2023-07-20T16:58:19;21.88;59.83
74224;SHT31;62585;49.706;18.216;2023-07-20T17:00:46;21.80;61.18
74224;SHT31;62585;49.706;18.216;2023-07-20T17:03:16;21.80;60.44
74224;SHT31;62585;49.706;18.216;2023-07-20T17:05:45;21.80;59.71
74224;SHT31;62585;49.706;18.216;2023-07-20T17:08:11;21.87;59.26
74224;SHT31;62585;49.706;18.216;2023-07-20T17:10:38;21.84;58.67
74224;SHT31;62585;49.706;18.216;2023-07-20T17:13:04;21.83;58.44
74224;SHT31;62585;49.706;18.216;2023-07-20T17:15:31;21.83;59.19
74224;SHT31;62585;49.706;18.216;2023-07-20T17:17:57;21.90;58.19
74224;SHT31;62585;49.706;18.216;2023-07-20T17:20:23;21.87;58.99
74224;SHT31;62585;49.706;18.216;2023-07-20T17:22:49;21.91;58.91
74224;SHT31;62585;49.706;18.216;2023-07-20T17:25:15;22.01;58.49
74224;SHT31;62585;49.706;18.216;2023-07-20T17:27:42;22.01;57.87
74224;SHT31;62585;49.706;18.216;2023-07-20T17:30:08;21.94;58.65
74224;SHT31;62585;49.706;18.216;2023-07-20T17:32:35;21.81;55.13
74224;SHT31;62585;49.706;18.216;2023-07-20T17:35:00;21.75;55.58
74224;SHT31;62585;49.706;18.216;2023-07-20T17:37:27;21.58;55.54
74224;SHT31;62585;49.706;18.216;2023-07-20T17:39:52;21.49;56.61
74224;SHT31;62585;49.706;18.216;2023-07-20T17:42:20;21.50;56.05
74224;SHT31;62585;49.706;18.216;2023-07-20T17:44:46;21.36;57.78
74224;SHT31;62585;49.706;18.216;2023-07-20T17:47:13;21.26;59.33
74224;SHT31;62585;49.706;18.216;2023-07-20T17:49:39;21.25;58.54
74224;SHT31;62585;49.706;18.216;2023-07-20T17:52:05;21.22;58.83
74224;SHT31;62585;49.706;18.216;2023-07-20T17:54:31;21.03;59.78
74224;SHT31;62585;49.706;18.216;2023-07-20T17:56:58;21.06;59.71
74224;SHT31;62585;49.706;18.216;2023-07-20T17:59:24;20.88;59.62
74224;SHT31;62585;49.706;18.216;2023-07-20T18:01:50;21.05;57.36
74224;SHT31;62585;49.706;18.216;2023-07-20T18:04:15;20.88;58.06
74224;SHT31;62585;49.706;18.216;2023-07-20T18:06:41;20.77;59.45
74224;SHT31;62585;49.706;18.216;2023-07-20T18:09:07;20.88;59.07
74224;SHT31;62585;49.706;18.216;2023-07-20T18:11:35;20.64;60.49
74224;SHT31;62585;49.706;18.216;2023-07-20T18:14:00;20.50;62.17
74224;SHT31;62585;49.706;18.216;2023-07-20T18:16:27;20.40;62.16
74224;SHT31;62585;49.706;18.216;2023-07-20T18:18:55;20.37;62.19
74224;SHT31;62585;49.706;18.216;2023-07-20T18:21:21;20.29;62.05
74224;SHT31;62585;49.706;18.216;2023-07-20T18:23:47;20.16;63.36
74224;SHT31;62585;49.706;18.216;2023-07-20T18:26:13;20.12;63.05
74224;SHT31;62585;49.706;18.216;2023-07-20T18:28:39;20.14;62.10
74224;SHT31;62585;49.706;18.216;2023-07-20T18:31:05;20.06;62.55
74224;SHT31;62585;49.706;18.216;2023-07-20T18:33:31;20.08;61.28
74224;SHT31;62585;49.706;18.216;2023-07-20T18:35:57;20.00;61.59
74224;SHT31;62585;49.706;18.216;2023-07-20T18:38:23;19.96;61.45
74224;SHT31;62585;49.706;18.216;2023-07-20T18:40:49;19.86;62.61
74224;SHT31;62585;49.706;18.216;2023-07-20T18:43:15;19.76;62.84
74224;SHT31;62585;49.706;18.216;2023-07-20T18:45:42;19.71;63.06
74224;SHT31;62585;49.706;18.216;2023-07-20T18:48:08;19.72;62.82
74224;SHT31;62585;49.706;18.216;2023-07-20T18:50:36;19.68;63.26
74224;SHT31;62585;49.706;18.216;2023-07-20T18:53:01;19.59;63.49
74224;SHT31;62585;49.706;18.216;2023-07-20T18:55:32;19.47;65.24
74224;SHT31;62585;49.706;18.216;2023-07-20T18:57:59;19.45;65.20
74224;SHT31;62585;49.706;18.216;2023-07-20T19:00:25;19.50;63.14
74224;SHT31;62585;49.706;18.216;2023-07-20T19:02:51;19.48;63.49
74224;SHT31;62585;49.706;18.216;2023-07-20T19:05:17;19.47;64.03
74224;SHT31;62585;49.706;18.216;2023-07-20T19:07:43;19.38;64.48
74224;SHT31;62585;49.706;18.216;2023-07-20T19:10:10;18.93;66.23
74224;SHT31;62585;49.706;18.216;2023-07-20T19:12:38;18.73;67.43
74224;SHT31;62585;49.706;18.216;2023-07-20T19:15:04;18.68;67.05
74224;SHT31;62585;49.706;18.216;2023-07-20T19:17:31;18.76;66.90
74224;SHT31;62585;49.706;18.216;2023-07-20T19:19:57;18.79;67.07
74224;SHT31;62585;49.706;18.216;2023-07-20T19:22:23;18.88;66.17
74224;SHT31;62585;49.706;18.216;2023-07-20T19:24:50;18.68;67.30
74224;SHT31;62585;49.706;18.216;2023-07-20T19:27:16;18.88;66.65
74224;SHT31;62585;49.706;18.216;2023-07-20T19:29:42;18.92;66.66
74224;SHT31;62585;49.706;18.216;2023-07-20T19:32:08;18.77;67.58
74224;SHT31;62585;49.706;18.216;2023-07-20T19:34:35;18.66;67.92
74224;SHT31;62585;49.706;18.216;2023-07-20T19:37:00;18.73;67.86
74224;SHT31;62585;49.706;18.216;2023-07-20T19:39:27;18.52;69.25
74224;SHT31;62585;49.706;18.216;2023-07-20T19:41:53;18.45;69.17
74224;SHT31;62585;49.706;18.216;2023-07-20T19:44:19;18.48;68.33
74224;SHT31;62585;49.706;18.216;2023-07-20T19:46:44;18.40;69.62
74224;SHT31;62585;49.706;18.216;2023-07-20T19:49:11;18.38;69.14
74224;SHT31;62585;49.706;18.216;2023-07-20T19:51:36;18.17;70.81
74224;SHT31;62585;49.706;18.216;2023-07-20T19:54:04;18.10;72.08
74224;SHT31;62585;49.706;18.216;2023-07-20T19:56:30;18.10;72.03
74224;SHT31;62585;49.706;18.216;2023-07-20T19:58:56;18.15;70.74
74224;SHT31;62585;49.706;18.216;2023-07-20T20:01:22;18.18;71.32
74224;SHT31;62585;49.706;18.216;2023-07-20T20:03:48;18.47;70.30
74224;SHT31;62585;49.706;18.216;2023-07-20T20:06:14;18.20;71.05
74224;SHT31;62585;49.706;18.216;2023-07-20T20:31:57;17.46;74.13
74224;SHT31;62585;49.706;18.216;2023-07-20T20:34:23;17.43;74.14
74224;SHT31;62585;49.706;18.216;2023-07-20T20:36:49;17.62;73.28
74224;SHT31;62585;49.706;18.216;2023-07-20T20:39:15;17.69;72.94
74224;SHT31;62585;49.706;18.216;2023-07-20T20:41:41;17.61;73.66
74224;SHT31;62585;49.706;18.216;2023-07-20T20:44:10;17.49;74.16
74224;SHT31;62585;49.706;18.216;2023-07-20T20:46:46;17.38;74.61
74224;SHT31;62585;49.706;18.216;2023-07-20T20:49:12;17.35;74.46
74224;SHT31;62585;49.706;18.216;2023-07-20T20:51:38;17.24;74.73
74224;SHT31;62585;49.706;18.216;2023-07-20T20:54:07;17.25;74.48
74224;SHT31;62585;49.706;18.216;2023-07-20T20:56:37;17.31;74.00
74224;SHT31;62585;49.706;18.216;2023-07-20T20:59:04;17.28;74.42
74224;SHT31;62585;49.706;18.216;2023-07-20T21:01:29;17.14;74.59
74224;SHT31;62585;49.706;18.216;2023-07-20T21:03:55;17.07;74.85
74224;SHT31;62585;49.706;18.216;2023-07-20T21:06:21;17.07;75.05
74224;SHT31;62585;49.706;18.216;2023-07-20T21:08:47;17.08;75.34
74224;SHT31;62585;49.706;18.216;2023-07-20T21:11:13;16.90;75.93
74224;SHT31;62585;49.706;18.216;2023-07-20T21:13:39;16.60;77.13
74224;SHT31;62585;49.706;18.216;2023-07-20T21:16:05;16.56;77.14
74224;SHT31;62585;49.706;18.216;2023-07-20T21:18:31;16.55;76.98
74224;SHT31;62585;49.706;18.216;2023-07-20T21:20:57;16.66;76.39
74224;SHT31;62585;49.706;18.216;2023-07-20T21:23:23;16.61;76.42
74224;SHT31;62585;49.706;18.216;2023-07-20T21:25:50;16.61;76.18
74224;SHT31;62585;49.706;18.216;2023-07-20T21:28:16;16.63;76.23
74224;SHT31;62585;49.706;18.216;2023-07-20T21:30:42;16.50;76.24
74224;SHT31;62585;49.706;18.216;2023-07-20T21:33:08;16.55;75.97
74224;SHT31;62585;49.706;18.216;2023-07-20T21:35:36;16.32;76.90
74224;SHT31;62585;49.706;18.216;2023-07-20T21:38:02;16.23;77.15
74224;SHT31;62585;49.706;18.216;2023-07-20T21:40:28;16.14;77.75
74224;SHT31;62585;49.706;18.216;2023-07-20T21:42:54;16.01;78.56
74224;SHT31;62585;49.706;18.216;2023-07-20T21:45:21;15.90;78.69
74224;SHT31;62585;49.706;18.216;2023-07-20T21:47:51;15.80;78.81
74224;SHT31;62585;49.706;18.216;2023-07-20T21:50:17;15.63;79.48
74224;SHT31;62585;49.706;18.216;2023-07-20T21:52:44;15.66;79.58
74224;SHT31;62585;49.706;18.216;2023-07-20T21:55:10;15.78;79.24
74224;SHT31;62585;49.706;18.216;2023-07-20T21:57:36;15.64;80.02
74224;SHT31;62585;49.706;18.216;2023-07-20T22:00:03;15.47;80.67
74224;SHT31;62585;49.706;18.216;2023-07-20T22:02:30;15.66;79.98
74224;SHT31;62585;49.706;18.216;2023-07-20T22:04:56;15.61;79.93
74224;SHT31;62585;49.706;18.216;2023-07-20T22:07:22;15.68;79.68
74224;SHT31;62585;49.706;18.216;2023-07-20T22:09:48;15.54;80.20
74224;SHT31;62585;49.706;18.216;2023-07-20T22:12:13;15.40;80.67
74224;SHT31;62585;49.706;18.216;2023-07-20T22:14:43;15.47;80.37
74224;SHT31;62585;49.706;18.216;2023-07-20T22:17:10;15.29;80.84
74224;SHT31;62585;49.706;18.216;2023-07-20T22:19:40;15.19;81.10
74224;SHT31;62585;49.706;18.216;2023-07-20T22:22:06;15.29;80.86
74224;SHT31;62585;49.706;18.216;2023-07-20T22:24:33;15.27;80.76
74224;SHT31;62585;49.706;18.216;2023-07-20T22:26:58;15.26;80.63
74224;SHT31;62585;49.706;18.216;2023-07-20T22:29:24;15.23;81.17
74224;SHT31;62585;49.706;18.216;2023-07-20T22:31:51;15.29;80.82
74224;SHT31;62585;49.706;18.216;2023-07-20T22:34:17;15.42;79.99
74224;SHT31;62585;49.706;18.216;2023-07-20T22:36:43;15.29;80.48
74224;SHT31;62585;49.706;18.216;2023-07-20T22:39:09;15.16;81.15
74224;SHT31;62585;49.706;18.216;2023-07-20T22:41:35;15.03;81.08
74224;SHT31;62585;49.706;18.216;2023-07-20T22:44:01;14.96;81.88
74224;SHT31;62585;49.706;18.216;2023-07-20T22:46:27;14.81;82.91
74224;SHT31;62585;49.706;18.216;2023-07-20T22:48:53;14.81;83.61
74224;SHT31;62585;49.706;18.216;2023-07-20T22:51:20;14.75;83.28
74224;SHT31;62585;49.706;18.216;2023-07-20T22:53:46;14.85;83.15
74224;SHT31;62585;49.706;18.216;2023-07-20T22:56:12;14.74;83.51
74224;SHT31;62585;49.706;18.216;2023-07-20T22:58:38;14.74;82.99